Time;durP1;ratioP1;P1;durP2;ratioP2;P2;SDS_P1;SDS_P2;PMS_P1;PMS_P2;Temp;Humidity;BMP_temperature;BMP_pressure;BME280_temperature;BME280_humidity;BME280_pressure;Samples;Min_cycle;Max_cycle;Signal;HPM_P1;HPM_P2
2021/11/25 00:00:25;;;;;;;10.73;6.95;;;;;;;;;;2099965;28;20103;-91
2021/11/25 00:01:25;;;;;;;10.40;7.50;;;;;;;;;;2090697;28;20027;-81
2021/11/25 00:02:26;;;;;;;11.18;7.72;;;;;;;;;;2081239;28;20477;-80
2021/11/25 00:03:26;;;;;;;12.57;7.78;;;;;;;;;;2090930;28;20463;-81
2021/11/25 00:04:26;;;;;;;12.70;7.82;;;;;;;;;;2090680;28;20052;-81
2021/11/25 00:05:27;;;;;;;14.05;8.35;;;;;;;;;;2082464;28;20071;-89
2021/11/25 00:06:27;;;;;;;10.93;8.55;;;;;;;;;;2091144;28;20025;-80
2021/11/25 00:07:27;;;;;;;12.75;7.80;;;;;;;;;;2091059;28;20028;-81
2021/11/25 00:08:28;;;;;;;11.52;8.32;;;;;;;;;;2089634;28;20096;-90
2021/11/25 00:09:28;;;;;;;11.73;8.00;;;;;;;;;;2099470;28;20124;-90
2021/11/25 00:10:29;;;;;;;11.10;7.70;;;;;;;;;;2099660;28;20029;-80
2021/11/25 00:11:29;;;;;;;10.85;8.30;;;;;;;;;;2090907;28;20025;-81
2021/11/25 00:12:30;;;;;;;11.63;7.90;;;;;;;;;;2091233;28;20095;-82
2021/11/25 00:13:30;;;;;;;11.63;8.15;;;;;;;;;;2090572;28;20072;-82
2021/11/25 00:14:30;;;;;;;11.57;7.88;;;;;;;;;;2082566;28;20033;-80
2021/11/25 00:15:31;;;;;;;12.15;8.68;;;;;;;;;;2089663;28;20446;-80
2021/11/25 00:16:31;;;;;;;10.80;8.55;;;;;;;;;;2099493;28;20063;-81
2021/11/25 00:17:32;;;;;;;11.70;8.43;;;;;;;;;;2090975;28;20432;-81
2021/11/25 00:18:32;;;;;;;13.38;8.02;;;;;;;;;;2082749;28;20472;-80
2021/11/25 00:19:32;;;;;;;11.70;8.45;;;;;;;;;;2090790;28;20361;-81
2021/11/25 00:20:33;;;;;;;10.30;8.10;;;;;;;;;;2091079;28;20029;-81
2021/11/25 00:21:34;;;;;;;11.82;8.52;;;;;;;;;;2081195;28;20077;-81
2021/11/25 00:22:34;;;;;;;9.63;7.85;;;;;;;;;;2090997;28;20482;-81
2021/11/25 00:23:35;;;;;;;12.93;8.93;;;;;;;;;;2090895;28;20071;-81
2021/11/25 00:24:35;;;;;;;12.88;9.02;;;;;;;;;;2082459;28;20112;-81
2021/11/25 00:25:36;;;;;;;14.07;8.82;;;;;;;;;;2090483;28;20021;-80
2021/11/25 00:26:36;;;;;;;12.73;9.32;;;;;;;;;;2091075;28;20429;-81
2021/11/25 00:27:37;;;;;;;14.10;10.20;;;;;;;;;;2099782;28;20027;-82
2021/11/25 00:28:38;;;;;;;13.88;9.50;;;;;;;;;;2089336;28;20055;-80
2021/11/25 00:29:38;;;;;;;12.75;8.82;;;;;;;;;;2090737;28;20119;-80
2021/11/25 00:30:38;;;;;;;14.65;8.95;;;;;;;;;;2090703;28;20032;-80
2021/11/25 00:31:39;;;;;;;11.82;9.63;;;;;;;;;;2090937;28;20041;-80
2021/11/25 00:32:40;;;;;;;13.13;8.95;;;;;;;;;;2090929;28;20053;-82
2021/11/25 00:33:40;;;;;;;11.80;8.90;;;;;;;;;;2099796;28;20021;-81
2021/11/25 00:34:40;;;;;;;13.90;9.00;;;;;;;;;;2090514;28;20047;-81
2021/11/25 00:35:41;;;;;;;11.23;9.32;;;;;;;;;;2080748;28;20065;-87
2021/11/25 00:36:41;;;;;;;13.80;8.70;;;;;;;;;;2090534;28;20075;-89
2021/11/25 00:37:42;;;;;;;11.15;7.90;;;;;;;;;;2090536;28;20079;-81
2021/11/25 00:38:42;;;;;;;13.60;8.95;;;;;;;;;;2082480;28;20022;-88
2021/11/25 00:39:42;;;;;;;13.65;8.68;;;;;;;;;;2082601;28;20550;-80
2021/11/25 00:40:43;;;;;;;13.70;8.52;;;;;;;;;;2082457;28;20049;-92
2021/11/25 00:41:45;;;;;;;11.43;8.60;;;;;;;;;;2080818;28;20136;-80
2021/11/25 00:42:46;;;;;;;12.68;8.95;;;;;;;;;;2082703;28;20018;-80
2021/11/25 00:43:46;;;;;;;13.85;8.00;;;;;;;;;;2090794;28;20023;-92
2021/11/25 00:44:47;;;;;;;10.02;7.72;;;;;;;;;;2090383;28;20013;-81
2021/11/25 00:45:48;;;;;;;12.50;8.07;;;;;;;;;;2082495;28;20469;-80
2021/11/25 00:46:48;;;;;;;12.30;8.07;;;;;;;;;;2090822;28;20103;-89
2021/11/25 00:47:48;;;;;;;10.35;8.07;;;;;;;;;;2099656;28;20021;-89
2021/11/25 00:48:49;;;;;;;11.68;8.52;;;;;;;;;;2098110;28;20020;-81
2021/11/25 00:49:49;;;;;;;11.20;8.20;;;;;;;;;;2090608;28;20033;-81
2021/11/25 00:50:49;;;;;;;11.40;8.32;;;;;;;;;;2082439;28;20021;-81
2021/11/25 00:51:50;;;;;;;12.20;8.48;;;;;;;;;;2090374;28;20445;-81
2021/11/25 00:52:50;;;;;;;14.00;9.07;;;;;;;;;;2090367;28;20442;-81
2021/11/25 00:53:50;;;;;;;14.05;8.85;;;;;;;;;;2099490;28;20031;-81
2021/11/25 00:54:51;;;;;;;11.35;7.40;;;;;;;;;;2098916;28;20375;-80
2021/11/25 00:55:51;;;;;;;11.02;8.23;;;;;;;;;;2098586;28;20438;-81
2021/11/25 00:56:52;;;;;;;14.30;7.90;;;;;;;;;;2099498;28;20485;-81
2021/11/25 00:57:52;;;;;;;11.35;8.00;;;;;;;;;;2090306;28;20025;-81
2021/11/25 00:58:52;;;;;;;10.18;7.75;;;;;;;;;;2090644;28;20021;-81
2021/11/25 00:59:53;;;;;;;11.18;7.57;;;;;;;;;;2090563;28;20036;-89
2021/11/25 01:00:53;;;;;;;10.30;7.45;;;;;;;;;;2082132;28;20041;-81
2021/11/25 01:01:54;;;;;;;10.02;8.60;;;;;;;;;;2088322;28;20154;-81
2021/11/25 01:02:54;;;;;;;10.50;8.30;;;;;;;;;;2090357;28;20025;-81
2021/11/25 01:03:54;;;;;;;11.40;7.97;;;;;;;;;;2099455;28;20017;-81
2021/11/25 01:04:55;;;;;;;9.50;7.47;;;;;;;;;;2099227;28;20063;-81
2021/11/25 01:05:55;;;;;;;10.45;7.65;;;;;;;;;;2099452;28;20134;-80
2021/11/25 01:06:56;;;;;;;11.27;8.38;;;;;;;;;;2099361;28;20021;-81
2021/11/25 01:07:56;;;;;;;10.45;7.60;;;;;;;;;;2099149;28;20483;-81
2021/11/25 01:08:56;;;;;;;11.52;7.47;;;;;;;;;;2097910;28;20404;-81
2021/11/25 01:09:57;;;;;;;11.85;7.45;;;;;;;;;;2090447;28;20063;-81
2021/11/25 01:10:57;;;;;;;10.93;7.50;;;;;;;;;;2082382;28;20025;-80
2021/11/25 01:12:01;;;;;;;10.90;7.88;;;;;;;;;;2082003;28;20237;-80
2021/11/25 01:13:02;;;;;;;11.27;7.70;;;;;;;;;;2091072;28;20025;-81
2021/11/25 01:14:02;;;;;;;11.23;7.65;;;;;;;;;;2099487;28;20367;-84
2021/11/25 01:15:04;;;;;;;12.13;8.48;;;;;;;;;;2097984;28;20020;-81
2021/11/25 01:16:04;;;;;;;11.52;7.65;;;;;;;;;;2090552;28;20079;-81
2021/11/25 01:17:05;;;;;;;10.95;7.60;;;;;;;;;;2082329;28;20026;-89
2021/11/25 01:18:07;;;;;;;10.43;7.55;;;;;;;;;;2090586;28;20466;-80
2021/11/25 01:19:07;;;;;;;9.90;7.35;;;;;;;;;;2099225;28;20024;-90
2021/11/25 01:20:10;;;;;;;11.32;8.10;;;;;;;;;;2099508;28;20027;-81
2021/11/25 01:21:10;;;;;;;10.95;7.65;;;;;;;;;;2099439;28;20012;-80
2021/11/25 01:22:10;;;;;;;10.07;7.60;;;;;;;;;;2097960;28;20020;-81
2021/11/25 01:23:12;;;;;;;11.25;8.00;;;;;;;;;;2099422;28;20017;-80
2021/11/25 01:24:12;;;;;;;11.23;7.50;;;;;;;;;;2090550;28;20024;-81
2021/11/25 01:25:13;;;;;;;9.82;7.45;;;;;;;;;;2090506;28;20021;-89
2021/11/25 01:26:13;;;;;;;11.07;7.82;;;;;;;;;;2090247;28;20071;-81
2021/11/25 01:27:16;;;;;;;13.57;7.88;;;;;;;;;;2082280;28;20092;-81
2021/11/25 01:28:16;;;;;;;9.43;7.10;;;;;;;;;;2089310;28;20488;-90
2021/11/25 01:29:17;;;;;;;14.73;8.30;;;;;;;;;;2090286;28;20087;-86
2021/11/25 01:30:17;;;;;;;12.02;7.97;;;;;;;;;;2090434;28;20091;-81
2021/11/25 01:31:18;;;;;;;10.50;8.73;;;;;;;;;;2099494;28;20460;-85
2021/11/25 01:32:18;;;;;;;10.60;7.63;;;;;;;;;;2090320;28;20024;-80
2021/11/25 01:33:18;;;;;;;9.73;7.25;;;;;;;;;;2090373;28;20107;-90
2021/11/25 01:34:19;;;;;;;9.57;7.50;;;;;;;;;;2090189;28;20448;-84
2021/11/25 01:35:19;;;;;;;11.93;7.60;;;;;;;;;;2097426;28;20024;-81
2021/11/25 01:36:19;;;;;;;12.45;8.02;;;;;;;;;;2099018;28;20032;-81
2021/11/25 01:37:23;;;;;;;10.48;7.40;;;;;;;;;;2098918;28;20099;-81
2021/11/25 01:38:24;;;;;;;15.15;8.32;;;;;;;;;;2099342;28;20476;-81
2021/11/25 01:39:25;;;;;;;10.60;7.50;;;;;;;;;;2090160;28;20392;-82
2021/11/25 01:40:25;;;;;;;11.05;8.20;;;;;;;;;;2082118;28;20025;-80
2021/11/25 01:41:25;;;;;;;11.15;7.30;;;;;;;;;;2082115;28;20416;-81
2021/11/25 01:42:26;;;;;;;10.05;8.30;;;;;;;;;;2088762;28;20028;-90
2021/11/25 01:43:26;;;;;;;10.13;7.63;;;;;;;;;;2099190;28;20055;-86
2021/11/25 01:44:27;;;;;;;10.25;8.02;;;;;;;;;;2090207;28;20064;-81
2021/11/25 01:45:28;;;;;;;10.35;8.05;;;;;;;;;;2089987;28;20017;-81
2021/11/25 01:46:28;;;;;;;11.77;7.80;;;;;;;;;;2090240;28;20544;-80
2021/11/25 01:47:29;;;;;;;10.45;6.85;;;;;;;;;;2090288;28;20048;-81
2021/11/25 01:48:29;;;;;;;10.40;7.45;;;;;;;;;;2088666;28;20025;-81
2021/11/25 01:49:30;;;;;;;12.85;7.68;;;;;;;;;;2081621;28;20009;-81
2021/11/25 01:50:32;;;;;;;9.77;8.05;;;;;;;;;;2090406;28;20017;-89
2021/11/25 01:51:32;;;;;;;9.60;7.20;;;;;;;;;;2099241;28;20412;-81
2021/11/25 01:52:32;;;;;;;10.18;7.80;;;;;;;;;;2099105;28;20020;-81
2021/11/25 01:53:33;;;;;;;11.20;7.90;;;;;;;;;;2089969;28;20021;-89
2021/11/25 01:54:34;;;;;;;10.18;7.60;;;;;;;;;;2081975;28;20025;-81
2021/11/25 01:55:34;;;;;;;12.05;8.07;;;;;;;;;;2080143;28;20027;-87
2021/11/25 01:56:34;;;;;;;10.98;7.65;;;;;;;;;;2090319;28;20032;-81
2021/11/25 01:57:35;;;;;;;9.45;7.07;;;;;;;;;;2098782;28;20056;-81
2021/11/25 01:58:35;;;;;;;12.00;7.38;;;;;;;;;;2099095;28;20126;-90
2021/11/25 01:59:36;;;;;;;11.00;7.80;;;;;;;;;;2090009;28;20066;-81
2021/11/25 02:00:43;;;;;;;9.82;7.15;;;;;;;;;;2090263;28;20523;-81
2021/11/25 02:01:44;;;;;;;9.65;7.18;;;;;;;;;;2097601;28;20031;-81
2021/11/25 02:02:44;;;;;;;11.25;7.40;;;;;;;;;;2099017;28;20020;-81
2021/11/25 02:03:45;;;;;;;10.38;7.75;;;;;;;;;;2090115;28;20048;-81
2021/11/25 02:04:45;;;;;;;10.65;7.97;;;;;;;;;;2090263;28;20028;-81
2021/11/25 02:05:46;;;;;;;11.00;7.78;;;;;;;;;;2090150;28;20017;-81
2021/11/25 02:06:46;;;;;;;9.13;7.30;;;;;;;;;;2090401;28;20476;-84
2021/11/25 02:07:46;;;;;;;10.77;8.32;;;;;;;;;;2090002;28;20017;-83
2021/11/25 02:08:47;;;;;;;9.57;7.43;;;;;;;;;;2088247;28;20103;-81
2021/11/25 02:09:47;;;;;;;11.00;7.05;;;;;;;;;;2098516;28;20464;-81
2021/11/25 02:10:49;;;;;;;11.85;7.80;;;;;;;;;;2099001;28;20142;-82
2021/11/25 02:11:50;;;;;;;9.05;7.00;;;;;;;;;;2099043;28;20337;-81
2021/11/25 02:12:50;;;;;;;11.15;8.00;;;;;;;;;;2099101;28;20078;-81
2021/11/25 02:13:51;;;;;;;9.35;6.53;;;;;;;;;;2089168;28;20113;-81
2021/11/25 02:14:51;;;;;;;9.60;6.70;;;;;;;;;;2081557;28;20017;-81
2021/11/25 02:15:52;;;;;;;10.23;7.50;;;;;;;;;;2080082;28;20037;-81
2021/11/25 02:16:52;;;;;;;10.43;7.50;;;;;;;;;;2090105;28;20029;-80
2021/11/25 02:17:53;;;;;;;10.07;7.55;;;;;;;;;;2098942;28;20019;-81
2021/11/25 02:18:55;;;;;;;10.95;7.53;;;;;;;;;;2098673;28;20028;-81
2021/11/25 02:19:56;;;;;;;10.30;7.10;;;;;;;;;;2089904;28;20025;-81
2021/11/25 02:20:58;;;;;;;9.73;7.47;;;;;;;;;;2090072;28;20456;-80
2021/11/25 02:21:58;;;;;;;11.15;7.97;;;;;;;;;;2088435;28;20075;-83
2021/11/25 02:23:01;;;;;;;12.10;7.53;;;;;;;;;;2090054;28;20017;-81
2021/11/25 02:24:02;;;;;;;8.88;7.50;;;;;;;;;;2089931;28;20029;-81
2021/11/25 02:25:03;;;;;;;12.35;7.47;;;;;;;;;;2081795;28;20026;-82
2021/11/25 02:26:04;;;;;;;11.70;7.93;;;;;;;;;;2081682;28;20063;-81
2021/11/25 02:27:04;;;;;;;11.20;7.85;;;;;;;;;;2090172;28;20013;-81
2021/11/25 02:28:05;;;;;;;11.80;7.57;;;;;;;;;;2098833;28;20025;-89
2021/11/25 02:29:05;;;;;;;12.00;7.63;;;;;;;;;;2088359;28;20025;-81
2021/11/25 02:30:06;;;;;;;13.40;8.43;;;;;;;;;;2081233;28;20481;-90
2021/11/25 02:31:07;;;;;;;11.77;7.90;;;;;;;;;;2089795;28;20562;-81
2021/11/25 02:32:07;;;;;;;10.43;7.38;;;;;;;;;;2089885;28;20021;-81
2021/11/25 02:33:08;;;;;;;12.65;8.52;;;;;;;;;;2081719;28;20025;-89
2021/11/25 02:34:08;;;;;;;12.82;8.13;;;;;;;;;;2089601;28;20025;-81
2021/11/25 02:35:11;;;;;;;10.27;7.50;;;;;;;;;;2088362;28;20017;-81
2021/11/25 02:36:12;;;;;;;8.88;7.30;;;;;;;;;;2089942;28;20082;-81
2021/11/25 02:37:12;;;;;;;11.45;7.55;;;;;;;;;;2089889;28;20067;-81
2021/11/25 02:38:13;;;;;;;10.02;7.25;;;;;;;;;;2081546;28;20025;-81
2021/11/25 02:39:13;;;;;;;12.10;7.43;;;;;;;;;;2081549;28;20412;-89
2021/11/25 02:40:15;;;;;;;10.80;7.00;;;;;;;;;;2089962;28;20096;-80
2021/11/25 02:41:16;;;;;;;9.52;7.07;;;;;;;;;;2098481;28;20376;-82
2021/11/25 02:42:16;;;;;;;10.55;7.07;;;;;;;;;;2096766;28;20017;-89
2021/11/25 02:43:18;;;;;;;9.85;7.00;;;;;;;;;;2089779;28;20024;-80
2021/11/25 02:44:19;;;;;;;10.57;7.47;;;;;;;;;;2090045;28;20047;-86
2021/11/25 02:45:21;;;;;;;9.63;6.80;;;;;;;;;;2098753;28;20028;-81
2021/11/25 02:46:21;;;;;;;13.07;8.43;;;;;;;;;;2098663;28;20459;-81
2021/11/25 02:47:21;;;;;;;8.95;6.97;;;;;;;;;;2089961;28;20052;-81
2021/11/25 02:48:24;;;;;;;11.27;7.65;;;;;;;;;;2080009;28;20449;-81
2021/11/25 02:49:24;;;;;;;10.07;6.70;;;;;;;;;;2081432;28;20021;-80
2021/11/25 02:50:26;;;;;;;9.48;6.28;;;;;;;;;;2089845;28;20025;-80
2021/11/25 02:51:27;;;;;;;12.85;7.55;;;;;;;;;;2098673;28;20468;-81
2021/11/25 02:52:28;;;;;;;11.73;7.50;;;;;;;;;;2098307;28;20025;-80
2021/11/25 02:53:29;;;;;;;10.73;6.65;;;;;;;;;;2089804;28;20020;-80
2021/11/25 02:54:30;;;;;;;11.05;7.60;;;;;;;;;;2089849;28;20017;-80
2021/11/25 02:55:30;;;;;;;12.20;7.13;;;;;;;;;;2096653;28;20092;-80
2021/11/25 02:56:31;;;;;;;9.85;7.45;;;;;;;;;;2089663;28;20039;-88
2021/11/25 02:57:35;;;;;;;10.63;7.35;;;;;;;;;;2089794;28;20136;-88
2021/11/25 02:58:36;;;;;;;10.50;6.97;;;;;;;;;;2098682;28;20476;-81
2021/11/25 02:59:36;;;;;;;12.32;7.45;;;;;;;;;;2098532;28;20025;-90
2021/11/25 03:00:38;;;;;;;9.43;6.57;;;;;;;;;;2089620;28;20055;-90
2021/11/25 03:01:38;;;;;;;9.73;6.40;;;;;;;;;;2080059;28;20026;-80
2021/11/25 03:02:39;;;;;;;10.20;7.45;;;;;;;;;;2081424;28;20473;-83
2021/11/25 03:03:39;;;;;;;9.57;6.55;;;;;;;;;;2089764;28;20372;-83
2021/11/25 03:04:40;;;;;;;12.82;7.32;;;;;;;;;;2089602;28;20045;-82
2021/11/25 03:05:41;;;;;;;10.27;7.65;;;;;;;;;;2081386;28;20024;-88
2021/11/25 03:06:41;;;;;;;10.52;7.30;;;;;;;;;;2081385;28;20457;-88
2021/11/25 03:07:42;;;;;;;10.55;7.50;;;;;;;;;;2089806;28;20025;-81
2021/11/25 03:08:42;;;;;;;12.52;7.32;;;;;;;;;;2088079;28;20043;-81
2021/11/25 03:09:43;;;;;;;10.57;6.93;;;;;;;;;;2089592;28;20484;-81
2021/11/25 03:10:44;;;;;;;9.68;7.97;;;;;;;;;;2098551;28;20021;-82
2021/11/25 03:11:45;;;;;;;9.23;6.50;;;;;;;;;;2089556;28;20025;-80
2021/11/25 03:12:45;;;;;;;9.98;7.45;;;;;;;;;;2089352;28;20020;-81
2021/11/25 03:13:47;;;;;;;10.80;8.05;;;;;;;;;;2098113;28;20048;-81
2021/11/25 03:14:48;;;;;;;12.13;7.90;;;;;;;;;;2089283;28;20017;-81
2021/11/25 03:15:48;;;;;;;10.45;7.05;;;;;;;;;;2088001;28;20557;-81
2021/11/25 03:16:49;;;;;;;10.55;7.40;;;;;;;;;;2089640;28;20171;-83
2021/11/25 03:17:49;;;;;;;11.27;7.78;;;;;;;;;;2089310;28;20127;-81
2021/11/25 03:18:50;;;;;;;11.25;8.25;;;;;;;;;;2089533;28;20456;-81
2021/11/25 03:19:50;;;;;;;10.15;7.10;;;;;;;;;;2089690;28;20040;-81
2021/11/25 03:20:51;;;;;;;9.35;6.78;;;;;;;;;;2098522;28;20024;-81
2021/11/25 03:21:52;;;;;;;10.05;6.80;;;;;;;;;;2088002;28;20021;-80
2021/11/25 03:22:53;;;;;;;11.77;6.50;;;;;;;;;;2081286;28;20029;-81
2021/11/25 03:23:53;;;;;;;10.57;7.07;;;;;;;;;;2089606;28;20021;-81
2021/11/25 03:24:55;;;;;;;10.05;7.13;;;;;;;;;;2089360;28;20456;-89
2021/11/25 03:25:56;;;;;;;11.18;8.25;;;;;;;;;;2081141;28;20022;-80
2021/11/25 03:26:56;;;;;;;9.98;7.28;;;;;;;;;;2089550;28;20061;-80
2021/11/25 03:27:56;;;;;;;9.32;7.22;;;;;;;;;;2089507;28;20440;-88
2021/11/25 03:29:00;;;;;;;10.13;7.20;;;;;;;;;;2096653;28;20029;-80
2021/11/25 03:30:00;;;;;;;9.60;7.32;;;;;;;;;;2098350;28;20047;-81
2021/11/25 03:31:00;;;;;;;10.75;7.72;;;;;;;;;;2089383;28;20048;-87
2021/11/25 03:32:01;;;;;;;10.23;7.28;;;;;;;;;;2080995;28;20465;-81
2021/11/25 03:33:05;;;;;;;11.13;7.75;;;;;;;;;;2081287;28;20022;-81
2021/11/25 03:34:05;;;;;;;11.15;7.13;;;;;;;;;;2089915;28;20109;-81
2021/11/25 03:35:07;;;;;;;11.23;6.97;;;;;;;;;;2096972;28;20024;-80
2021/11/25 03:36:08;;;;;;;9.70;6.63;;;;;;;;;;2098491;28;20024;-89
2021/11/25 03:37:08;;;;;;;10.75;7.43;;;;;;;;;;2098182;28;20058;-83
2021/11/25 03:38:09;;;;;;;9.13;6.75;;;;;;;;;;2098219;28;20036;-81
2021/11/25 03:39:09;;;;;;;10.27;7.85;;;;;;;;;;2098484;28;20028;-83
2021/11/25 03:40:10;;;;;;;11.40;7.47;;;;;;;;;;2089404;28;20029;-81
2021/11/25 03:41:11;;;;;;;8.48;6.70;;;;;;;;;;2089603;28;20025;-81
2021/11/25 03:42:12;;;;;;;9.95;7.10;;;;;;;;;;2088087;28;20036;-80
2021/11/25 03:43:12;;;;;;;10.70;6.85;;;;;;;;;;2081078;28;20076;-81
2021/11/25 03:44:13;;;;;;;9.52;6.65;;;;;;;;;;2089437;28;20025;-80
2021/11/25 03:45:13;;;;;;;9.73;7.28;;;;;;;;;;2089591;28;20392;-89
2021/11/25 03:46:13;;;;;;;10.63;6.82;;;;;;;;;;2098316;28;20017;-80
2021/11/25 03:47:14;;;;;;;9.55;6.75;;;;;;;;;;2098487;28;20025;-81
2021/11/25 03:48:15;;;;;;;11.85;7.15;;;;;;;;;;2089130;28;20074;-81
2021/11/25 03:49:15;;;;;;;12.07;7.90;;;;;;;;;;2088385;28;20025;-81
2021/11/25 03:50:15;;;;;;;10.65;6.88;;;;;;;;;;2089378;28;20133;-88
2021/11/25 03:51:17;;;;;;;9.90;7.53;;;;;;;;;;2089547;28;20066;-80
2021/11/25 03:52:17;;;;;;;9.52;7.10;;;;;;;;;;2089593;28;20051;-80
2021/11/25 03:53:18;;;;;;;9.68;6.60;;;;;;;;;;2081238;28;20112;-81
2021/11/25 03:54:18;;;;;;;10.07;6.53;;;;;;;;;;2081160;28;20029;-81
2021/11/25 03:55:19;;;;;;;8.38;6.50;;;;;;;;;;2087584;28;20029;-80
2021/11/25 03:56:19;;;;;;;9.70;6.63;;;;;;;;;;2098343;28;20017;-80
2021/11/25 03:57:19;;;;;;;8.57;6.30;;;;;;;;;;2098335;28;20383;-81
2021/11/25 03:58:20;;;;;;;11.30;6.65;;;;;;;;;;2089504;28;20027;-81
2021/11/25 03:59:20;;;;;;;7.88;6.30;;;;;;;;;;2081182;28;20060;-80
2021/11/25 04:00:21;;;;;;;13.15;7.05;;;;;;;;;;2089446;28;20029;-80
2021/11/25 04:01:23;;;;;;;8.23;6.70;;;;;;;;;;2098382;28;20418;-80
2021/11/25 04:02:23;;;;;;;10.50;6.43;;;;;;;;;;2087778;28;20028;-81
2021/11/25 04:03:24;;;;;;;8.27;6.38;;;;;;;;;;2081152;28;20156;-80
2021/11/25 04:04:24;;;;;;;8.45;5.95;;;;;;;;;;2089575;28;20087;-81
2021/11/25 04:05:25;;;;;;;10.43;7.40;;;;;;;;;;2089306;28;20036;-80
2021/11/25 04:06:25;;;;;;;8.48;5.95;;;;;;;;;;2089580;28;20399;-81
2021/11/25 04:07:26;;;;;;;8.90;6.03;;;;;;;;;;2089375;28;20021;-80
2021/11/25 04:08:26;;;;;;;9.40;6.28;;;;;;;;;;2079667;28;20100;-80
2021/11/25 04:09:26;;;;;;;12.27;7.32;;;;;;;;;;2080723;28;20155;-81
2021/11/25 04:10:27;;;;;;;10.57;6.55;;;;;;;;;;2089413;28;20110;-80
2021/11/25 04:11:27;;;;;;;10.63;6.63;;;;;;;;;;2088998;28;20021;-80
2021/11/25 04:12:27;;;;;;;9.57;6.43;;;;;;;;;;2089532;28;20112;-81
2021/11/25 04:13:28;;;;;;;10.00;6.60;;;;;;;;;;2097990;28;20424;-81
2021/11/25 04:14:29;;;;;;;10.02;6.90;;;;;;;;;;2098373;28;20048;-80
2021/11/25 04:15:29;;;;;;;8.55;6.18;;;;;;;;;;2087863;28;20088;-91
2021/11/25 04:16:30;;;;;;;8.88;5.93;;;;;;;;;;2089404;28;20063;-80
2021/11/25 04:17:31;;;;;;;9.82;6.85;;;;;;;;;;2081559;28;20029;-80
2021/11/25 04:18:31;;;;;;;9.82;6.35;;;;;;;;;;2081179;28;20108;-81
2021/11/25 04:19:32;;;;;;;8.93;6.35;;;;;;;;;;2089628;28;20044;-80
2021/11/25 04:20:33;;;;;;;8.82;6.53;;;;;;;;;;2089351;28;20403;-80
2021/11/25 04:21:34;;;;;;;10.65;7.82;;;;;;;;;;2089627;28;20337;-80
2021/11/25 04:22:34;;;;;;;11.50;6.90;;;;;;;;;;2087883;28;20073;-81
2021/11/25 04:23:35;;;;;;;11.45;8.10;;;;;;;;;;2089407;28;20096;-90
2021/11/25 04:24:35;;;;;;;9.20;6.30;;;;;;;;;;2089148;28;20033;-80
2021/11/25 04:25:35;;;;;;;10.07;7.35;;;;;;;;;;2089027;28;20025;-80
2021/11/25 04:26:36;;;;;;;11.65;6.72;;;;;;;;;;2081118;28;20026;-86
2021/11/25 04:27:37;;;;;;;8.93;6.57;;;;;;;;;;2081171;28;20457;-80
2021/11/25 04:28:37;;;;;;;8.73;6.80;;;;;;;;;;2079680;28;20037;-81
2021/11/25 04:29:41;;;;;;;9.65;6.80;;;;;;;;;;2089234;28;20104;-80
2021/11/25 04:35:39;;;;;;;9.45;6.43;;;;;;;;;;2096917;28;20020;-80
2021/11/25 04:36:41;;;;;;;8.95;6.45;;;;;;;;;;2098287;28;20414;-80
2021/11/25 04:37:41;;;;;;;10.82;6.75;;;;;;;;;;2090721;28;20021;-80
2021/11/25 04:38:41;;;;;;;9.10;6.57;;;;;;;;;;2090577;28;20048;-81
2021/11/25 04:39:42;;;;;;;10.48;7.47;;;;;;;;;;2099719;28;20375;-81
2021/11/25 04:40:47;;;;;;;12.63;6.75;;;;;;;;;;2099407;28;20028;-80
2021/11/25 04:41:47;;;;;;;9.73;6.65;;;;;;;;;;2098220;28;20527;-81
2021/11/25 04:42:47;;;;;;;20.25;6.22;;;;;;;;;;2090744;28;20024;-90
2021/11/25 04:43:48;;;;;;;10.52;6.55;;;;;;;;;;2090870;28;20465;-81
2021/11/25 04:44:48;;;;;;;10.15;6.53;;;;;;;;;;2099833;28;20020;-80
2021/11/25 04:45:50;;;;;;;10.45;6.25;;;;;;;;;;2099647;28;20051;-81
2021/11/25 04:46:50;;;;;;;10.02;6.65;;;;;;;;;;2099487;28;20125;-81
2021/11/25 04:47:51;;;;;;;9.40;6.68;;;;;;;;;;2099749;28;20021;-81
2021/11/25 04:48:51;;;;;;;9.68;6.47;;;;;;;;;;2098077;28;20380;-87
2021/11/25 04:49:51;;;;;;;10.48;6.13;;;;;;;;;;2090270;28;20075;-81
2021/11/25 04:50:52;;;;;;;10.38;6.68;;;;;;;;;;2090856;28;20031;-81
2021/11/25 04:51:52;;;;;;;8.50;5.75;;;;;;;;;;2099624;28;20020;-81
2021/11/25 04:52:53;;;;;;;10.52;6.88;;;;;;;;;;2090619;28;20025;-81
2021/11/25 04:53:54;;;;;;;11.02;6.60;;;;;;;;;;2090847;28;20013;-91
2021/11/25 04:54:54;;;;;;;9.85;6.70;;;;;;;;;;2090606;28;20024;-80
2021/11/25 04:55:55;;;;;;;8.52;6.97;;;;;;;;;;2089238;28;20020;-81
2021/11/25 04:56:55;;;;;;;10.05;6.90;;;;;;;;;;2090664;28;20104;-81
2021/11/25 04:57:55;;;;;;;8.90;6.75;;;;;;;;;;2082388;28;20025;-81
2021/11/25 04:58:55;;;;;;;12.73;7.40;;;;;;;;;;2081935;28;20021;-81
2021/11/25 04:59:56;;;;;;;9.57;6.63;;;;;;;;;;2090301;28;20053;-81
2021/11/25 05:00:56;;;;;;;9.43;6.80;;;;;;;;;;2099136;28;20016;-80
2021/11/25 05:01:57;;;;;;;10.90;7.07;;;;;;;;;;2098093;28;20109;-90
2021/11/25 05:02:57;;;;;;;11.45;7.95;;;;;;;;;;2099140;28;20029;-80
2021/11/25 05:03:57;;;;;;;13.80;9.32;;;;;;;;;;2099601;28;20143;-89
2021/11/25 05:04:58;;;;;;;13.43;9.63;;;;;;;;;;2099202;28;20100;-88
2021/11/25 05:05:58;;;;;;;19.52;11.63;;;;;;;;;;2090272;28;20393;-81
2021/11/25 05:06:59;;;;;;;15.02;11.32;;;;;;;;;;2082069;28;20026;-80
2021/11/25 05:07:59;;;;;;;15.40;11.52;;;;;;;;;;2090791;28;20017;-81
2021/11/25 05:08:59;;;;;;;17.92;11.65;;;;;;;;;;2098051;28;20040;-80
2021/11/25 05:10:00;;;;;;;16.83;12.07;;;;;;;;;;2099121;28;20028;-81
2021/11/25 05:11:00;;;;;;;16.85;12.05;;;;;;;;;;2090263;28;20020;-81
2021/11/25 05:12:00;;;;;;;17.15;11.05;;;;;;;;;;2082078;28;20446;-81
2021/11/25 05:13:01;;;;;;;17.33;11.70;;;;;;;;;;2082215;28;20017;-81
2021/11/25 05:14:01;;;;;;;13.68;9.63;;;;;;;;;;2082266;28;20021;-81
2021/11/25 05:15:02;;;;;;;14.95;9.50;;;;;;;;;;2089067;28;20024;-80
2021/11/25 05:16:03;;;;;;;15.70;9.38;;;;;;;;;;2099541;28;20436;-81
2021/11/25 05:17:04;;;;;;;12.75;8.95;;;;;;;;;;2099405;28;20142;-80
2021/11/25 05:18:04;;;;;;;10.95;8.30;;;;;;;;;;2090088;28;20071;-80
2021/11/25 05:19:04;;;;;;;13.50;8.73;;;;;;;;;;2082254;28;20552;-80
2021/11/25 05:20:06;;;;;;;12.70;9.60;;;;;;;;;;2090639;28;20029;-81
2021/11/25 05:21:06;;;;;;;12.23;8.05;;;;;;;;;;2090542;28;20060;-88
2021/11/25 05:22:07;;;;;;;10.35;7.60;;;;;;;;;;2089099;28;20017;-81
2021/11/25 05:23:07;;;;;;;9.70;6.75;;;;;;;;;;2090494;28;20063;-80
2021/11/25 05:24:07;;;;;;;11.18;7.75;;;;;;;;;;2090452;28;20107;-80
2021/11/25 05:25:09;;;;;;;10.00;6.95;;;;;;;;;;2090157;28;20024;-89
2021/11/25 05:26:09;;;;;;;9.77;7.18;;;;;;;;;;2090611;28;20017;-81
2021/11/25 05:27:10;;;;;;;9.48;6.72;;;;;;;;;;2099375;28;20413;-80
2021/11/25 05:28:11;;;;;;;12.27;7.88;;;;;;;;;;2090401;28;20500;-80
2021/11/25 05:29:11;;;;;;;10.70;7.22;;;;;;;;;;2088767;28;20024;-81
2021/11/25 05:30:12;;;;;;;11.13;7.75;;;;;;;;;;2090248;28;20040;-80
2021/11/25 05:31:13;;;;;;;9.32;7.43;;;;;;;;;;2090517;28;20059;-90
2021/11/25 05:32:16;;;;;;;11.20;7.78;;;;;;;;;;2090034;28;20070;-90
2021/11/25 05:33:17;;;;;;;11.35;7.40;;;;;;;;;;2090897;28;20013;-80
2021/11/25 05:34:17;;;;;;;11.20;7.32;;;;;;;;;;2090308;28;20452;-81
2021/11/25 05:35:17;;;;;;;10.50;7.53;;;;;;;;;;2088990;28;20016;-80
2021/11/25 05:36:18;;;;;;;12.75;7.43;;;;;;;;;;2090423;28;20598;-80
2021/11/25 05:37:18;;;;;;;10.00;7.53;;;;;;;;;;2082039;28;20427;-81
2021/11/25 05:38:19;;;;;;;8.98;7.10;;;;;;;;;;2090144;28;20028;-80
2021/11/25 05:39:19;;;;;;;13.02;7.93;;;;;;;;;;2090302;28;20028;-81
2021/11/25 05:40:20;;;;;;;11.30;7.65;;;;;;;;;;2081726;28;20449;-80
2021/11/25 05:41:20;;;;;;;11.32;7.57;;;;;;;;;;2090521;28;20020;-80
2021/11/25 05:42:20;;;;;;;11.23;8.02;;;;;;;;;;2088767;28;20017;-81
2021/11/25 05:43:21;;;;;;;12.50;7.60;;;;;;;;;;2089963;28;20036;-90
2021/11/25 05:44:21;;;;;;;13.77;8.95;;;;;;;;;;2090215;28;20021;-80
2021/11/25 05:45:21;;;;;;;13.10;8.30;;;;;;;;;;2081773;28;20018;-81
2021/11/25 05:46:23;;;;;;;11.00;8.02;;;;;;;;;;2081723;28;20362;-80
2021/11/25 05:47:24;;;;;;;11.02;7.18;;;;;;;;;;2090359;28;20370;-81
2021/11/25 05:48:25;;;;;;;12.98;7.78;;;;;;;;;;2097370;28;20032;-80
2021/11/25 05:49:25;;;;;;;12.68;7.78;;;;;;;;;;2090082;28;20550;-81
2021/11/25 05:50:26;;;;;;;11.45;8.23;;;;;;;;;;2081685;28;20064;-81
2021/11/25 05:51:27;;;;;;;13.98;8.82;;;;;;;;;;2090434;28;20031;-89
2021/11/25 05:52:27;;;;;;;13.15;8.27;;;;;;;;;;2090137;28;20031;-80
2021/11/25 05:53:27;;;;;;;13.15;7.65;;;;;;;;;;2082090;28;20021;-80
2021/11/25 05:54:28;;;;;;;11.18;8.15;;;;;;;;;;2089928;28;20036;-89
2021/11/25 05:55:30;;;;;;;13.35;7.82;;;;;;;;;;2097143;28;20063;-80
2021/11/25 05:56:30;;;;;;;10.45;7.25;;;;;;;;;;2090143;28;20025;-81
2021/11/25 05:57:31;;;;;;;10.40;8.05;;;;;;;;;;2090125;28;20107;-89
2021/11/25 05:58:31;;;;;;;10.40;6.75;;;;;;;;;;2089953;28;20021;-81
2021/11/25 05:59:32;;;;;;;10.02;7.75;;;;;;;;;;2099195;28;20474;-81
2021/11/25 06:00:32;;;;;;;9.70;6.90;;;;;;;;;;2098767;28;20487;-80
2021/11/25 06:01:32;;;;;;;10.23;7.53;;;;;;;;;;2099149;28;20468;-81
2021/11/25 06:02:33;;;;;;;10.93;7.38;;;;;;;;;;2088347;28;20032;-81
2021/11/25 06:03:33;;;;;;;12.57;7.70;;;;;;;;;;2089879;28;20107;-81
2021/11/25 06:04:33;;;;;;;12.15;7.38;;;;;;;;;;2098625;28;20071;-81